Bison, SD (57620)

8:32 PM MST on December 24, 2014 (GMT -0700)
RAWS SHADEHILL SD US | Change Station
CLOSE
Current Station
Personal Weather Station
Location: Lemmon, SD
Elevation: 2515 ft
Nearby Weather Stations

Elev 2515 ft 45.67 °N, 102.17 °W | Updated 52 minutes ago

Overcast
Overcast
34 °F
Feels Like 28 °F
N
7
Wind Variable Wind from NNW
Gusts 10.0 mph

Today
High -- | Low -- °F
--% Chance of Precip.
Yesterday
High -- | Low -- °F
Precip. -- in
7:28 AM 4:10 PM
Waxing Crescent, 13% visible
Pressure 29.53 in
Visibility 10.0 miles
Clouds Scattered Clouds 3000 ft
Overcast 4000 ft
Windchill 28 °F
Dew Point 29 °F
Humidity 83%
Rainfall 0.00 in
Snow Depth Not available.
UV 0 out of 12
Pollen .10 out of 12
Air Quality Not available.
Flu Activity Not available.
METAR KHEI 250253Z AUTO 32005KT 10SM SCT030 OVC040 01/M01 A2946 RMK AO2 SNE10 SLP000 P0000 60000 T00061006 56003

More Conditions Fewer Conditions

Pressure 29.53 in
Visibility 10.0 miles
Clouds Scattered Clouds 3000 ft
Overcast 4000 ft
Windchill 28 °F
Dew Point 29 °F
Humidity 83%
Rainfall 0.00 in
Snow Depth Not available.
UV 0 out of 12
Pollen .10 out of 12
Air Quality Not available.
Flu Activity Not available.
METAR KHEI 250253Z AUTO 32005KT 10SM SCT030 OVC040 01/M01 A2946 RMK AO2 SNE10 SLP000 P0000 60000 T00061006 56003

More Conditions Fewer Conditions

10-Day Weather Forecast

Almanac

Astronomy

Dec. 24, 2014 Rise Set
Actual Time
Civil Twilight
Nautical Twilight
Astronomical Twilight
Moon
Length of Visible Light
Length of Day
Tomorrow will be .
, % of the Moon is Illuminated

Today's Extremes

State Highs State Lows

Community

WunderPhotos

Upload Photos

1,780,224 photos uploaded!

WunderBlogs® & News

Nearby

Air Quality

  Air Quality AQ Index Pollutant
Not available.

Snow Depth

Station Depth Elevation

Earthquake Activity

City Distance Mag. Time & Date
Minimum magnitude displayed is 2.5.

Coastal Water Temperatures

Place Temperature

Nearby Weather Stations